LPPRLPPT

Guest
Details From LPPR - Porto
To LPPT - Lisboa
Flight Number -
Tags decoded
Created
Modified
Stats Distance 150 nm / 277 km
Max Altitude 0 ft / 0 m
Waypoints 2
Social Downloads 0
Likes 0
Share VATSIM

Download

Looking for another format? Having issues loading an existing format? Contact us
Advertisement - Login to hide

Notes

Requested: LPPR MANI4L INBO4A LPPT Unmatched points: MANI4L INBO4A

Route

LPPR LPPT

ID Type Via Altitude Latitude Longitude Leg Dist Tot Dist Heading (true) Name
O LPPR APT - 0 ft / 0 m 41.24793˚ -8.68122˚ - 0 nm - Porto
O LPPT APT - 0 ft / 0 m 38.77856˚ -9.13515˚ 149 nm 149 nm 188° / 188° Lisboa

Altitude Profile

Advertisement - Login to hide

LPPR

Details ICAO LPPR (OPO)
Name Porto
Region Portugal
Timezone Europe/Lisbon (UTC+1.0)
Stats Elevation 228 ft / 69 m (AMSL)
Location 41.247932° -8.681221°
Runways 1
Magnetic Variation 2.282° W

METAR

LPPR 260200Z 36003KT 4000 BR SCT002 15/14 Q1012

Decode

TAF

TAF LPPR 252300Z 2600/2624 VRB03KT 6000 FEW008 PROB30 TEMPO 2600/2608 2000 BR BKN002 BECMG 2608/2610 21008KT 9999 SCT015 BECMG 2613/2616 27008KT BECMG 2618/2620 VRB03KT FEW015 BECMG 2621/2623 5000 BR SCT002 BKN004

Decode

Departure Runways

ID Width Length Bearing (true) Bearing (mag) Surface Threshold Offset Overrun Length
17 148 ft / 45 m 11,451 ft / 3,490 m 168.88° 171.16° Asphalt 984 ft / 300 m 220 ft / 67 m
35 148 ft / 45 m 11,451 ft / 3,490 m 348.89° 351.17° Asphalt 492 ft / 150 m 370 ft / 113 m

LPPT

Details ICAO LPPT (LIS)
Name Lisboa
Region Portugal
Timezone Europe/Lisbon (UTC+1.0)
Stats Elevation 374 ft / 114 m (AMSL)
Location 38.778559° -9.135146°
Runways 2
Magnetic Variation 2.309° W

METAR

LPPT 260200Z 29003KT CAVOK 14/12 Q1012

Decode

TAF

TAF LPPT 252300Z 2600/2706 VRB03KT 9999 FEW015 PROB30 TEMPO 2602/2607 BKN008 BECMG 2608/2610 SCT018 BECMG 2612/2614 21008KT SCT030 BECMG 2615/2617 31012KT BECMG 2619/2621 35005KT FEW015 TEMPO 2702/2705 BKN010

Decode

Destination Runways

ID Width Length Bearing (true) Bearing (mag) Surface Threshold Offset Overrun Length
03 148 ft / 45 m 12,518 ft / 3,815 m 22.70° 25.01° Asphalt 296 ft / 90 m 0 ft / 0 m
17 148 ft / 45 m 7,922 ft / 2,415 m 168.38° 170.69° Asphalt 0 ft / 0 m 0 ft / 0 m
21 148 ft / 45 m 12,518 ft / 3,815 m 202.72° 205.03° Asphalt 1,969 ft / 600 m 0 ft / 0 m
35 148 ft / 45 m 7,922 ft / 2,415 m 348.38° 350.69° Asphalt 492 ft / 150 m 0 ft / 0 m

Approach Navaids

Runway Type Ident Frequency Range Bearing (true) Bearing (mag) Slope Elevation
03 Localiser ILI 109.10 MHz 18 nm / 33 km 22.74° 25.05° - 335 ft / 102 m (AMSL)
03 Glidescope ILI 109.10 MHz 10 nm / 19 km 22.71° 25.02° 3.00° 419 ft / 128 m (AMSL)
03 DME ILI 109.10 MHz 18 nm / 33 km - - - 419 ft / 128 m (AMSL)
21 Localiser ILB 109.50 MHz 18 nm / 33 km 202.59° 204.89° - 335 ft / 102 m (AMSL)
21 Glidescope ILB 109.50 MHz 10 nm / 19 km 202.71° 205.02° 3.00° 423 ft / 129 m (AMSL)
21 DME ILB 109.50 MHz 18 nm / 33 km - - - 423 ft / 129 m (AMSL)

Popular Alternatives